createdAt,value
2023-04-05T00:02:29.794Z,11.00
2023-04-05T00:04:58.446Z,12.10
2023-04-05T00:07:27.208Z,14.87
2023-04-05T00:09:55.536Z,11.27
2023-04-05T00:12:23.726Z,13.50
2023-04-05T00:14:51.886Z,12.37
2023-04-05T00:17:20.816Z,13.10
2023-04-05T00:19:57.892Z,13.07
2023-04-05T00:22:26.748Z,13.00
2023-04-05T00:24:55.047Z,12.80
2023-04-05T00:27:23.246Z,11.77
2023-04-05T00:29:51.376Z,12.40
2023-04-05T00:32:19.578Z,13.40
2023-04-05T00:34:47.782Z,14.70
2023-04-05T00:37:17.321Z,12.23
2023-04-05T00:39:45.505Z,13.53
2023-04-05T00:42:13.663Z,12.50
2023-04-05T00:44:41.828Z,12.57
2023-04-05T00:47:10.049Z,12.77
2023-04-05T00:49:38.743Z,13.57
2023-04-05T00:52:06.959Z,14.00
2023-04-05T00:54:38.165Z,12.37
2023-04-05T00:57:07.435Z,14.07
2023-04-05T00:59:35.693Z,13.83
2023-04-05T01:02:07.915Z,13.40
2023-04-05T01:04:36.748Z,14.80
2023-04-05T01:07:09.010Z,11.43
2023-04-05T01:09:44.504Z,14.20
2023-04-05T01:12:14.208Z,15.20
2023-04-05T01:14:46.516Z,14.07
2023-04-05T01:17:16.416Z,14.83
2023-04-05T01:19:48.093Z,16.17
2023-04-05T01:22:28.665Z,15.60
2023-04-05T01:25:11.806Z,13.50
2023-04-05T01:27:49.624Z,15.63
2023-04-05T01:30:20.120Z,14.20
2023-04-05T01:32:49.626Z,13.13
2023-04-05T01:35:21.307Z,16.23
2023-04-05T01:37:51.542Z,13.50
2023-04-05T01:40:19.940Z,12.93
2023-04-05T01:42:48.124Z,16.27
2023-04-05T01:45:16.290Z,14.67
2023-04-05T01:47:45.879Z,15.97
2023-04-05T01:50:14.075Z,15.70
2023-04-05T01:52:42.278Z,17.57
2023-04-05T01:55:10.652Z,15.03
2023-04-05T01:57:39.544Z,14.23
2023-04-05T02:00:08.311Z,16.00
2023-04-05T02:02:36.542Z,14.37
2023-04-05T02:05:06.316Z,15.70
2023-04-05T02:07:34.491Z,15.23
2023-04-05T02:10:02.766Z,15.60
2023-04-05T02:12:31.090Z,13.53
2023-04-05T02:14:59.389Z,15.63
2023-04-05T02:17:39.921Z,15.30
2023-04-05T02:20:12.613Z,14.90
2023-04-05T02:22:41.006Z,13.67
2023-04-05T02:25:09.738Z,13.90
2023-04-05T02:27:38.027Z,13.17
2023-04-05T02:30:06.668Z,13.50
2023-04-05T02:32:34.925Z,13.23
2023-04-05T02:35:03.913Z,12.43
2023-04-05T02:37:33.492Z,13.57
2023-04-05T02:40:01.697Z,12.17
2023-04-05T02:42:29.829Z,14.20
2023-04-05T02:44:58.010Z,14.57
2023-04-05T02:47:26.253Z,13.37
2023-04-05T02:49:54.485Z,12.17
2023-04-05T02:52:22.685Z,13.67
2023-04-05T02:54:52.142Z,11.70
2023-04-05T02:57:20.282Z,13.17
2023-04-05T02:59:48.510Z,13.47
2023-04-05T03:02:16.979Z,14.67
2023-04-05T03:04:45.375Z,12.10
2023-04-05T03:07:18.674Z,12.07
2023-04-05T03:09:47.500Z,14.27
2023-04-05T03:12:16.974Z,12.17
2023-04-05T03:14:46.142Z,11.53
2023-04-05T03:17:14.361Z,12.93
2023-04-05T03:19:42.682Z,12.60
2023-04-05T03:22:11.021Z,13.87
2023-04-05T03:24:39.137Z,12.13
2023-04-05T03:27:07.570Z,12.50
2023-04-05T03:29:37.056Z,12.60
2023-04-05T03:32:05.257Z,12.90
2023-04-05T03:34:33.464Z,12.40
2023-04-05T03:37:01.621Z,11.70
2023-04-05T03:39:29.820Z,13.63
2023-04-05T03:41:58.059Z,13.27
2023-04-05T03:44:26.247Z,12.00
2023-04-05T03:46:55.856Z,12.30
2023-04-05T03:49:24.011Z,11.87
2023-04-05T03:51:52.205Z,15.03
2023-04-05T03:54:21.841Z,13.87
2023-04-05T03:56:50.013Z,12.80
2023-04-05T03:59:18.291Z,14.00
2023-04-05T04:01:46.570Z,15.53
2023-04-05T04:04:16.061Z,11.77
2023-04-05T04:06:44.278Z,14.47
2023-04-05T04:09:12.455Z,12.47
2023-04-05T04:11:40.734Z,11.47
2023-04-05T04:14:09.490Z,12.10
2023-04-05T04:16:37.905Z,11.43
2023-04-05T04:19:06.102Z,14.67
2023-04-05T04:21:35.871Z,12.80
2023-04-05T04:24:04.144Z,13.03
2023-04-05T04:26:37.453Z,13.40
2023-04-05T04:29:06.686Z,13.53
2023-04-05T04:31:34.881Z,12.00
2023-04-05T04:34:03.214Z,13.70
2023-04-05T04:36:36.284Z,12.23
2023-04-05T04:39:06.978Z,12.30
2023-04-05T04:41:35.849Z,13.90
2023-04-05T04:44:04.342Z,11.77
2023-04-05T04:46:34.623Z,11.43
2023-04-05T04:49:05.815Z,12.67
2023-04-05T04:51:34.218Z,13.37
2023-04-05T04:54:02.473Z,10.73
2023-04-05T04:56:31.953Z,12.67
2023-04-05T04:59:00.176Z,12.27
2023-04-05T05:01:28.377Z,13.10
2023-04-05T05:03:56.779Z,13.13
2023-04-05T05:06:24.971Z,11.97
2023-04-05T05:08:53.194Z,13.33
2023-04-05T05:11:21.736Z,11.40
2023-04-05T05:13:53.187Z,11.73
2023-04-05T05:16:21.806Z,10.37
2023-04-05T05:18:50.045Z,17.33
2023-04-05T05:21:18.302Z,14.70
2023-04-05T05:23:47.008Z,14.60
2023-04-05T05:26:15.193Z,12.23
2023-04-05T05:28:43.433Z,16.40
2023-04-05T05:31:14.298Z,14.57
2023-04-05T05:33:42.617Z,15.40
2023-04-05T05:36:10.930Z,12.97
2023-04-05T05:38:39.151Z,11.87
2023-04-05T05:41:07.339Z,14.93
2023-04-05T05:43:35.546Z,13.53
2023-04-05T05:46:04.057Z,11.47
2023-04-05T05:48:33.631Z,12.17
2023-04-05T05:51:02.666Z,16.90
2023-04-05T05:53:33.657Z,15.97
2023-04-05T05:56:01.883Z,14.77
2023-04-05T05:58:30.220Z,13.27
2023-04-05T06:00:58.920Z,11.80
2023-04-05T06:03:29.839Z,12.27
2023-04-05T06:06:00.088Z,12.47
2023-04-05T06:08:28.662Z,15.53
2023-04-05T06:10:56.932Z,16.20
2023-04-05T06:13:25.336Z,15.73
2023-04-05T06:15:53.559Z,14.80
2023-04-05T06:18:21.971Z,16.00
2023-04-05T06:20:50.544Z,17.53
2023-04-05T06:23:20.101Z,14.20
2023-04-05T06:25:48.265Z,15.00
2023-04-05T06:28:16.501Z,17.03
2023-04-05T06:30:44.960Z,13.27
2023-04-05T06:33:13.177Z,13.60
2023-04-05T06:35:41.643Z,15.73
2023-04-05T06:38:10.056Z,13.90
2023-04-05T06:40:40.730Z,16.93
2023-04-05T06:43:10.940Z,17.57
2023-04-05T06:45:39.351Z,18.63
2023-04-05T06:48:07.801Z,16.60
2023-04-05T06:50:36.210Z,19.63
2023-04-05T06:53:04.903Z,17.37
2023-04-05T06:55:33.092Z,14.43
2023-04-05T06:58:02.602Z,16.93
2023-04-05T07:00:30.908Z,15.90
2023-04-05T07:02:59.132Z,16.60
2023-04-05T07:05:27.363Z,15.13
2023-04-05T07:07:55.558Z,15.67
2023-04-05T07:10:23.769Z,17.27
2023-04-05T07:12:52.713Z,18.13
2023-04-05T07:15:22.574Z,17.17
2023-04-05T07:17:50.956Z,19.53
2023-04-05T07:20:19.178Z,18.07
2023-04-05T07:22:47.340Z,15.50
2023-04-05T07:25:15.605Z,16.77
2023-04-05T07:27:43.780Z,20.03
2023-04-05T07:30:14.543Z,14.77
2023-04-05T07:32:44.111Z,14.67
2023-04-05T07:35:12.329Z,14.73
2023-04-05T07:37:40.667Z,17.13
2023-04-05T07:40:10.997Z,16.60
2023-04-05T07:42:39.371Z,12.73
2023-04-05T07:45:08.085Z,16.33
2023-04-05T07:47:36.279Z,18.00
2023-04-05T07:50:07.087Z,16.13
2023-04-05T07:52:35.295Z,13.63
2023-04-05T07:55:03.588Z,17.70
2023-04-05T07:57:31.729Z,14.53
2023-04-05T07:59:59.891Z,15.33
2023-04-05T08:02:28.145Z,15.60
2023-04-05T08:04:56.530Z,14.83
2023-04-05T08:07:26.088Z,13.57
2023-04-05T08:09:57.445Z,14.77
2023-04-05T08:12:26.162Z,16.33
2023-04-05T08:14:54.437Z,16.60
2023-04-05T08:17:22.663Z,14.30
2023-04-05T08:19:52.637Z,16.57
2023-04-05T08:22:21.133Z,14.03
2023-04-05T08:24:50.843Z,15.60
2023-04-05T08:27:19.372Z,18.17
2023-04-05T08:29:47.558Z,14.93
2023-04-05T08:32:15.994Z,14.47
2023-04-05T08:34:44.333Z,13.63
2023-04-05T08:37:12.527Z,12.93
2023-04-05T08:39:40.638Z,14.73
2023-04-05T08:42:15.197Z,15.10
2023-04-05T08:44:43.821Z,15.03
2023-04-05T08:47:15.144Z,17.00
2023-04-05T08:49:44.626Z,13.70
2023-04-05T08:52:12.943Z,17.10
2023-04-05T08:54:41.158Z,16.37
2023-04-05T08:57:09.343Z,13.47
2023-04-05T08:59:40.782Z,12.97
2023-04-05T09:02:13.921Z,15.27
2023-04-05T09:04:45.191Z,12.70
2023-04-05T09:07:15.034Z,15.27
2023-04-05T09:09:44.633Z,14.47
2023-04-05T09:12:12.926Z,15.07
2023-04-05T09:14:42.930Z,17.07
2023-04-05T09:17:11.551Z,15.37
2023-04-05T09:19:39.862Z,14.60
2023-04-05T09:22:08.644Z,14.70
2023-04-05T09:24:39.673Z,15.10
2023-04-05T09:27:09.074Z,18.10
2023-04-05T09:29:37.483Z,15.07
2023-04-05T09:32:07.734Z,14.20
2023-04-05T09:34:37.712Z,14.70
2023-04-05T09:37:14.262Z,15.63
2023-04-05T09:39:42.519Z,14.97
2023-04-05T09:42:11.787Z,14.53
2023-04-05T09:44:55.830Z,16.40
2023-04-05T09:47:27.522Z,14.80
2023-04-05T09:49:55.853Z,16.43
2023-04-05T09:52:24.995Z,16.97
2023-04-05T09:54:53.912Z,13.63
2023-04-05T09:57:22.047Z,16.33
2023-04-05T09:59:50.282Z,13.93
2023-04-05T10:02:18.588Z,14.07
2023-04-05T10:04:49.255Z,15.83
2023-04-05T10:07:18.192Z,17.27
2023-04-05T10:09:48.947Z,14.57
2023-04-05T10:12:20.269Z,12.77
2023-04-05T10:14:48.509Z,15.93
2023-04-05T10:17:21.024Z,14.80
2023-04-05T10:19:59.434Z,16.53
2023-04-05T10:22:35.211Z,14.30
2023-04-05T10:25:07.147Z,15.77
2023-04-05T10:27:37.346Z,13.87
2023-04-05T10:30:08.944Z,19.13
2023-04-05T10:32:43.564Z,15.73
2023-04-05T10:35:17.627Z,13.87
2023-04-05T10:37:52.764Z,16.20
2023-04-05T10:40:22.669Z,15.80
2023-04-05T10:42:51.203Z,15.93
2023-04-05T10:45:22.350Z,13.37
2023-04-05T10:47:52.121Z,13.93
2023-04-05T10:50:24.230Z,15.23
2023-04-05T10:52:53.172Z,14.17
2023-04-05T10:55:22.406Z,14.97
2023-04-05T10:57:51.475Z,15.93
2023-04-05T11:00:20.483Z,13.93
2023-04-05T11:02:50.212Z,15.67
2023-04-05T11:05:33.010Z,13.60
2023-04-05T11:08:08.080Z,13.30
2023-04-05T11:10:37.639Z,15.57
2023-04-05T11:13:06.741Z,16.37
2023-04-05T11:15:35.244Z,17.30
2023-04-05T11:18:04.439Z,14.43
2023-04-05T11:20:43.510Z,19.77
2023-04-05T11:23:12.219Z,16.27
2023-04-05T11:25:41.367Z,16.73
2023-04-05T11:28:09.890Z,14.67
2023-04-05T11:30:51.508Z,14.03
2023-04-05T11:33:38.366Z,15.30
2023-04-05T11:36:08.633Z,13.70
2023-04-05T11:38:36.912Z,16.57
2023-04-05T11:41:08.986Z,16.50
2023-04-05T11:43:38.309Z,15.60
2023-04-05T11:46:07.081Z,15.90
2023-04-05T11:48:36.337Z,15.63
2023-04-05T11:51:09.268Z,14.70
2023-04-05T11:53:37.705Z,17.27
2023-04-05T11:56:10.043Z,15.90
2023-04-05T11:58:38.478Z,14.47
2023-04-05T12:01:07.542Z,16.67
2023-04-05T12:03:36.415Z,16.27
2023-04-05T12:06:05.345Z,15.83
2023-04-05T12:08:50.238Z,16.07
2023-04-05T12:11:19.262Z,18.73
2023-04-05T12:13:47.422Z,18.63
2023-04-05T12:16:16.825Z,16.10
2023-04-05T12:18:45.026Z,16.03
2023-04-05T12:21:13.628Z,14.30
2023-04-05T12:23:41.863Z,18.93
2023-04-05T12:26:11.387Z,16.63
2023-04-05T12:28:52.498Z,14.87
2023-04-05T12:31:36.960Z,15.97
2023-04-05T12:34:05.187Z,18.07
2023-04-05T12:36:33.473Z,15.83
2023-04-05T12:39:01.692Z,13.90
2023-04-05T12:41:31.578Z,15.50
2023-04-05T12:44:01.972Z,15.03
2023-04-05T12:46:41.095Z,16.77
2023-04-05T12:49:12.354Z,14.40
2023-04-05T12:51:43.985Z,15.77
2023-04-05T12:54:14.410Z,16.20
2023-04-05T12:56:44.050Z,19.10
2023-04-05T12:59:12.642Z,15.47
2023-04-05T13:01:40.822Z,14.47
2023-04-05T13:04:16.254Z,17.13
2023-04-05T13:06:46.554Z,14.90
2023-04-05T13:09:14.713Z,16.77
2023-04-05T13:11:44.218Z,17.03
2023-04-05T13:14:12.381Z,15.77
2023-04-05T13:16:40.628Z,16.77
2023-04-05T13:19:09.082Z,15.13
2023-04-05T13:21:37.298Z,17.43
2023-04-05T13:24:05.869Z,17.13
2023-04-05T13:26:34.077Z,16.17
2023-04-05T13:29:03.850Z,15.47
2023-04-05T13:31:33.510Z,17.70
2023-04-05T13:34:01.743Z,17.63
2023-04-05T13:36:29.910Z,16.60
2023-04-05T13:38:58.164Z,18.87
2023-04-05T13:41:26.508Z,18.87
2023-04-05T13:43:54.731Z,18.67
2023-04-05T13:46:24.346Z,18.53
2023-04-05T13:48:52.593Z,21.23
2023-04-05T13:51:21.071Z,22.50
2023-04-05T13:53:49.218Z,23.30
2023-04-05T13:56:17.503Z,20.70
2023-04-05T13:58:45.742Z,21.87
2023-04-05T14:01:14.147Z,22.13
2023-04-05T14:03:44.044Z,23.97
2023-04-05T14:06:12.333Z,22.03
2023-04-05T14:08:40.532Z,21.70
2023-04-05T14:11:08.895Z,22.77
2023-04-05T14:13:37.168Z,20.87
2023-04-05T14:16:06.063Z,21.50
2023-04-05T14:18:34.363Z,23.20
2023-04-05T14:21:04.021Z,23.67
2023-04-05T14:23:32.253Z,24.97
2023-04-05T14:26:00.606Z,20.93
2023-04-05T14:28:28.887Z,22.10
2023-04-05T14:30:58.773Z,18.20
2023-04-05T14:33:27.644Z,19.50
2023-04-05T14:35:56.157Z,20.27
2023-04-05T14:38:26.102Z,19.00
2023-04-05T14:40:54.357Z,19.83
2023-04-05T14:43:22.596Z,22.13
2023-04-05T14:45:50.904Z,21.23
2023-04-05T14:48:19.185Z,19.60
2023-04-05T14:50:47.402Z,21.27
2023-04-05T14:53:15.872Z,22.93
2023-04-05T14:55:45.486Z,23.00
2023-04-05T14:58:14.606Z,25.10
2023-04-05T15:00:43.320Z,26.47
2023-04-05T15:03:12.004Z,23.27
2023-04-05T15:05:40.400Z,22.97
2023-04-05T15:08:08.644Z,23.33
2023-04-05T15:10:36.973Z,24.07
2023-04-05T15:13:06.603Z,24.40
2023-04-05T15:15:34.802Z,24.67
2023-04-05T15:18:03.275Z,25.83
2023-04-05T15:20:31.506Z,24.03
2023-04-05T15:22:59.854Z,22.87
2023-04-05T15:25:28.067Z,24.80
2023-04-05T15:27:59.624Z,26.60
2023-04-05T15:30:31.689Z,27.67
2023-04-05T15:32:59.968Z,22.67
2023-04-05T15:35:28.394Z,24.17
2023-04-05T15:37:56.759Z,24.77
2023-04-05T15:40:25.016Z,23.33
2023-04-05T15:42:53.350Z,23.67
2023-04-05T15:45:21.770Z,24.23
2023-04-05T15:47:51.518Z,24.73
2023-04-05T15:50:20.471Z,25.20
2023-04-05T15:52:49.160Z,27.27
2023-04-05T15:55:17.397Z,25.30
2023-04-05T15:57:45.742Z,26.37
2023-04-05T16:00:14.727Z,25.60
2023-04-05T16:02:43.104Z,26.07
2023-04-05T16:05:12.814Z,23.70
2023-04-05T16:07:41.158Z,26.00
2023-04-05T16:10:10.228Z,22.97
2023-04-05T16:12:38.673Z,24.27
2023-04-05T16:15:07.427Z,23.83
2023-04-05T16:17:36.165Z,26.03
2023-04-05T16:20:04.678Z,22.07
2023-04-05T16:22:34.293Z,26.27
2023-04-05T16:25:02.535Z,23.17
2023-04-05T16:27:30.864Z,23.47
2023-04-05T16:29:59.110Z,22.53
2023-04-05T16:32:27.409Z,23.00
2023-04-05T16:34:55.710Z,24.33
2023-04-05T16:37:23.984Z,22.63
2023-04-05T16:39:53.657Z,21.37
2023-04-05T16:42:21.924Z,20.57
2023-04-05T16:44:50.197Z,21.80
2023-04-05T16:47:18.642Z,22.23
2023-04-05T16:49:46.862Z,27.40
2023-04-05T16:52:15.438Z,21.77
2023-04-05T16:54:43.779Z,21.13
2023-04-05T16:57:13.716Z,21.57
2023-04-05T16:59:42.117Z,25.90
2023-04-05T17:02:10.461Z,22.83
2023-04-05T17:04:38.832Z,21.83
2023-04-05T17:07:07.687Z,24.90
2023-04-05T17:09:35.990Z,23.37
2023-04-05T17:12:04.306Z,22.13
2023-04-05T17:14:33.916Z,23.37
2023-04-05T17:17:02.180Z,23.33
2023-04-05T17:19:30.501Z,27.27
2023-04-05T17:21:58.774Z,24.27
2023-04-05T17:24:27.572Z,22.37
2023-04-05T17:26:55.958Z,22.53
2023-04-05T17:29:24.239Z,25.23
2023-04-05T17:31:53.918Z,23.27
2023-04-05T17:34:22.280Z,23.67
2023-04-05T17:36:50.580Z,23.43
2023-04-05T17:39:18.829Z,22.27
2023-04-05T17:41:47.409Z,25.60
2023-04-05T17:44:16.565Z,22.43
2023-04-05T17:46:53.989Z,23.43
2023-04-05T17:49:31.158Z,23.43
2023-04-05T17:51:59.446Z,26.87
2023-04-05T17:54:27.739Z,25.23
2023-04-05T17:56:56.501Z,25.73
2023-04-05T17:59:24.943Z,25.60
2023-04-05T18:01:53.716Z,24.20
2023-04-05T18:04:22.368Z,25.77
2023-04-05T18:06:52.043Z,27.77
2023-04-05T18:09:20.317Z,27.23
2023-04-05T18:11:48.501Z,26.53
2023-04-05T18:14:16.781Z,26.40
2023-04-05T18:16:44.999Z,24.63
2023-04-05T18:19:13.465Z,25.67
2023-04-05T18:21:41.742Z,28.83
2023-04-05T18:24:12.870Z,24.30
2023-04-05T18:26:41.443Z,28.33
2023-04-05T18:29:09.608Z,26.67
2023-04-05T18:31:37.945Z,24.27
2023-04-05T18:34:06.427Z,25.40
2023-04-05T18:36:36.232Z,25.53
2023-04-05T18:39:04.814Z,26.07
2023-04-05T18:41:34.647Z,28.60
2023-04-05T18:44:02.856Z,28.80
2023-04-05T18:46:31.167Z,28.50
2023-04-05T18:48:59.537Z,31.07
2023-04-05T18:51:28.580Z,26.20
2023-04-05T18:53:57.494Z,26.97
2023-04-05T18:56:25.936Z,29.40
2023-04-05T18:58:55.933Z,27.90
2023-04-05T19:01:24.219Z,29.33
2023-04-05T19:03:52.555Z,26.57
2023-04-05T19:06:21.145Z,28.97
2023-04-05T19:08:49.415Z,25.70
2023-04-05T19:11:18.725Z,28.57
2023-04-05T19:13:48.128Z,28.80
2023-04-05T19:16:17.982Z,27.03
2023-04-05T19:18:46.459Z,28.60
2023-04-05T19:21:15.018Z,30.00
2023-04-05T19:23:43.293Z,31.93
2023-04-05T19:26:12.233Z,34.93
2023-04-05T19:28:40.568Z,29.20
2023-04-05T19:31:08.831Z,30.57
2023-04-05T19:33:38.545Z,29.27
2023-04-05T19:36:07.330Z,30.83
2023-04-05T19:38:35.826Z,30.63
2023-04-05T19:41:04.036Z,30.27
2023-04-05T19:43:33.256Z,28.67
2023-04-05T19:46:01.863Z,30.27
2023-04-05T19:48:35.927Z,29.20
2023-04-05T19:51:06.885Z,28.73
2023-04-05T19:53:41.358Z,33.00
2023-04-05T19:56:10.715Z,30.37
2023-04-05T19:58:39.049Z,29.50
2023-04-05T20:01:08.199Z,30.43
2023-04-05T20:03:37.434Z,31.77
2023-04-05T20:06:10.874Z,31.87
2023-04-05T20:08:40.477Z,29.67
2023-04-05T20:11:09.810Z,29.03
2023-04-05T20:13:43.193Z,28.53
2023-04-05T20:16:12.247Z,29.53
2023-04-05T20:18:40.608Z,37.00
2023-04-05T20:21:10.258Z,34.67
2023-04-05T20:23:38.989Z,30.73
2023-04-05T20:26:07.843Z,33.30
2023-04-05T20:28:38.208Z,29.07
2023-04-05T20:31:10.085Z,32.10
2023-04-05T20:33:46.008Z,29.47
2023-04-05T20:36:17.651Z,30.37
2023-04-05T20:38:46.858Z,29.70
2023-04-05T20:41:16.733Z,29.73
2023-04-05T20:43:45.504Z,31.20
2023-04-05T20:46:13.788Z,31.73
2023-04-05T20:48:42.029Z,32.77
2023-04-05T20:51:10.852Z,33.67
2023-04-05T20:53:40.593Z,30.70
2023-04-05T20:56:09.569Z,33.53
2023-04-05T20:58:38.288Z,32.53
2023-04-05T21:01:07.162Z,35.37
2023-04-05T21:03:36.490Z,33.30
2023-04-05T21:06:05.816Z,32.10
2023-04-05T21:08:34.002Z,33.20
2023-04-05T21:11:03.831Z,31.63
2023-04-05T21:13:32.498Z,31.63
2023-04-05T21:16:00.900Z,32.63
2023-04-05T21:18:29.109Z,29.37
2023-04-05T21:20:57.357Z,31.90
2023-04-05T21:23:27.185Z,29.67
2023-04-05T21:25:55.838Z,33.07
2023-04-05T21:28:25.973Z,31.83
2023-04-05T21:30:54.303Z,30.27
2023-04-05T21:33:22.607Z,29.47
2023-04-05T21:35:51.042Z,31.73
2023-04-05T21:38:19.387Z,31.07
2023-04-05T21:40:49.953Z,28.07
2023-04-05T21:43:18.392Z,32.63
2023-04-05T21:45:48.056Z,32.17
2023-04-05T21:48:16.415Z,32.80
2023-04-05T21:50:44.622Z,30.70
2023-04-05T21:53:12.876Z,33.23
2023-04-05T21:55:41.179Z,31.50
2023-04-05T21:58:09.368Z,30.20
2023-04-05T22:00:37.773Z,32.80
2023-04-05T22:03:07.449Z,29.37
2023-04-05T22:05:38.531Z,30.33
2023-04-05T22:08:08.517Z,33.70
2023-04-05T22:10:38.038Z,34.90
2023-04-05T22:13:06.334Z,33.60
2023-04-05T22:15:34.850Z,31.07
2023-04-05T22:18:03.852Z,31.73
2023-04-05T22:20:33.470Z,29.80
2023-04-05T22:23:01.674Z,31.13
2023-04-05T22:25:29.923Z,28.20
2023-04-05T22:28:00.215Z,31.10
2023-04-05T22:30:28.826Z,29.70
2023-04-05T22:32:57.311Z,30.07
2023-04-05T22:35:25.661Z,32.00
2023-04-05T22:37:55.233Z,30.63
2023-04-05T22:40:27.012Z,29.80
2023-04-05T22:42:55.527Z,31.47
2023-04-05T22:45:26.670Z,34.03
2023-04-05T22:47:55.001Z,29.30
2023-04-05T22:50:23.319Z,29.10
2023-04-05T22:52:51.519Z,34.23
2023-04-05T22:55:21.271Z,29.67
2023-04-05T22:57:50.488Z,35.97
2023-04-05T23:00:18.858Z,29.57
2023-04-05T23:02:47.085Z,33.23
2023-04-05T23:05:15.538Z,30.20
2023-04-05T23:07:43.731Z,28.73
2023-04-05T23:10:12.252Z,28.13
2023-04-05T23:12:41.896Z,29.93
2023-04-05T23:15:10.582Z,31.67
2023-04-05T23:17:38.819Z,30.80
2023-04-05T23:20:07.505Z,29.93
2023-04-05T23:22:36.204Z,28.23
2023-04-05T23:25:04.556Z,31.37
2023-04-05T23:27:32.970Z,33.40
2023-04-05T23:30:02.617Z,28.87
2023-04-05T23:32:30.902Z,28.10
2023-04-05T23:34:59.235Z,28.37
2023-04-05T23:37:27.530Z,29.33
2023-04-05T23:39:55.800Z,28.90
2023-04-05T23:42:24.075Z,30.63
2023-04-05T23:44:52.302Z,27.57
2023-04-05T23:47:21.893Z,27.93
2023-04-05T23:49:50.134Z,27.67
2023-04-05T23:52:18.377Z,32.17
2023-04-05T23:54:46.598Z,31.00
2023-04-05T23:57:14.824Z,28.30
2023-04-05T23:59:43.218Z,31.63
